Lakeside, Washington
Current Conditions -  °F | °C
As of 9:55 AM on Friday 28 Nov 2014 (Local Time) from KEAT Reporting Station
Clear Clear  
Wind Chill: 51°   Ceiling: Unl
Heat Index: 51°   Visibility: NA
Dew Point: 40°   Wind: 0mph
Humidity: 66%   Direction: NA
Pressure: 29.4"   Gusts: NA
Location:  47.9044°N, 120.153°W
Report Text: KEAT 281755Z AUTO 00000KT CLR 11/04 A2940 RMK AO2 SLP957 T01060044 10111 20061 56023
Loading
Personal Weather Stations






























Interactive Weather Map New forecast layout! Learn more

10-Day Weather Forecast

Advertisements
Track Severe Weather on mobile